createdAt,value
2017-11-24T00:00:03.203Z,4.47
2017-11-24T00:02:29.552Z,8.23
2017-11-24T00:04:55.859Z,3.43
2017-11-24T00:07:22.177Z,10.73
2017-11-24T00:09:49.201Z,12.40
2017-11-24T00:12:15.519Z,17.57
2017-11-24T00:14:41.811Z,22.17
2017-11-24T00:17:08.115Z,22.03
2017-11-24T00:19:35.227Z,24.17
2017-11-24T00:22:03.065Z,23.37
2017-11-24T00:24:29.356Z,21.63
2017-11-24T00:26:56.421Z,17.47
2017-11-24T00:29:22.736Z,16.87
2017-11-24T00:31:49.774Z,16.40
2017-11-24T00:34:16.063Z,24.10
2017-11-24T00:36:49.382Z,22.10
2017-11-24T00:39:15.705Z,21.23
2017-11-24T00:41:42.040Z,19.53
2017-11-24T00:44:08.381Z,23.13
2017-11-24T00:46:34.688Z,21.43
2017-11-24T00:49:00.937Z,22.80
2017-11-24T00:51:27.303Z,31.03
2017-11-24T00:53:53.649Z,31.63
2017-11-24T00:56:19.954Z,26.80
2017-11-24T00:58:46.357Z,33.30
2017-11-24T01:01:12.973Z,26.43
2017-11-24T01:03:39.255Z,34.33
2017-11-24T01:06:05.572Z,27.47
2017-11-24T01:08:32.594Z,32.73
2017-11-24T01:10:58.934Z,37.37
2017-11-24T01:13:25.269Z,27.60
2017-11-24T01:15:51.585Z,30.37
2017-11-24T01:18:17.898Z,28.63
2017-11-24T01:20:44.269Z,31.07
2017-11-24T01:23:10.599Z,27.43
2017-11-24T01:25:36.932Z,29.23
2017-11-24T01:28:03.256Z,27.77
2017-11-24T01:30:29.563Z,34.37
2017-11-24T01:32:55.922Z,27.33
2017-11-24T01:35:22.223Z,31.17
2017-11-24T01:37:48.531Z,30.27
2017-11-24T01:40:14.783Z,29.87
2017-11-24T01:42:41.050Z,33.00
2017-11-24T01:45:07.304Z,34.00
2017-11-24T01:47:34.305Z,35.07
2017-11-24T01:50:02.080Z,29.57
2017-11-24T01:52:28.416Z,28.63
2017-11-24T01:54:54.748Z,33.27
2017-11-24T01:57:21.069Z,28.73
2017-11-24T01:59:47.396Z,31.93
2017-11-24T02:02:13.736Z,29.67
2017-11-24T02:04:40.006Z,30.00
2017-11-24T02:07:07.052Z,35.70
2017-11-24T02:09:33.321Z,26.83
2017-11-24T02:11:59.604Z,31.90
2017-11-24T02:14:26.659Z,38.53
2017-11-24T02:16:52.940Z,32.33
2017-11-24T02:19:19.213Z,34.60
2017-11-24T02:21:46.270Z,29.63
2017-11-24T02:24:12.553Z,38.63
2017-11-24T02:26:38.930Z,35.60
2017-11-24T02:29:05.305Z,32.50
2017-11-24T02:31:31.637Z,28.27
2017-11-24T02:33:57.909Z,33.37
2017-11-24T02:36:24.222Z,33.67
2017-11-24T02:38:50.475Z,34.80
2017-11-24T02:41:17.472Z,36.80
2017-11-24T02:43:43.751Z,36.13
2017-11-24T02:46:10.740Z,34.37
2017-11-24T02:48:37.210Z,28.27
2017-11-24T02:51:04.896Z,32.30
2017-11-24T02:53:31.930Z,32.27
2017-11-24T02:55:59.042Z,34.80
2017-11-24T02:58:25.384Z,32.43
2017-11-24T03:00:51.705Z,37.40
2017-11-24T03:03:17.990Z,37.30
2017-11-24T03:05:45.140Z,33.70
2017-11-24T03:08:12.142Z,29.80
2017-11-24T03:10:38.406Z,40.03
2017-11-24T03:13:05.465Z,32.73
2017-11-24T03:15:32.473Z,37.50
2017-11-24T03:17:58.725Z,36.03
2017-11-24T03:20:24.993Z,32.73
2017-11-24T03:22:51.325Z,32.40
2017-11-24T03:25:17.655Z,33.13
2017-11-24T03:27:43.955Z,35.77
2017-11-24T03:30:11.028Z,38.43
2017-11-24T03:32:37.290Z,36.47
2017-11-24T03:35:03.690Z,35.30
2017-11-24T03:37:29.988Z,34.83
2017-11-24T03:39:56.274Z,31.17
2017-11-24T03:42:22.659Z,34.53
2017-11-24T03:44:49.676Z,40.83
2017-11-24T03:47:15.961Z,36.00
2017-11-24T03:49:42.237Z,31.43
2017-11-24T03:52:08.548Z,34.87
2017-11-24T03:54:34.853Z,37.77
2017-11-24T03:57:01.166Z,32.60
2017-11-24T03:59:28.237Z,35.93
2017-11-24T04:01:54.530Z,31.23
2017-11-24T04:04:20.886Z,33.17
2017-11-24T04:06:47.204Z,32.80
2017-11-24T04:09:14.231Z,34.17
2017-11-24T04:11:40.523Z,31.40
2017-11-24T04:14:06.849Z,28.17
2017-11-24T04:16:33.157Z,31.83
2017-11-24T04:18:59.447Z,27.67
2017-11-24T04:21:25.785Z,34.97
2017-11-24T04:23:52.051Z,26.50
2017-11-24T04:26:18.340Z,40.13
2017-11-24T04:28:44.641Z,28.43
2017-11-24T04:31:10.954Z,29.30
2017-11-24T04:33:37.262Z,27.70
2017-11-24T04:36:03.652Z,38.50
2017-11-24T04:38:29.925Z,30.10
2017-11-24T04:40:56.962Z,30.20
2017-11-24T04:43:23.978Z,35.03
2017-11-24T04:45:50.239Z,32.93
2017-11-24T04:48:16.563Z,36.63
2017-11-24T04:50:42.888Z,34.93
2017-11-24T04:53:09.316Z,36.00
2017-11-24T04:55:35.655Z,33.03
2017-11-24T04:58:02.701Z,35.60
2017-11-24T05:00:29.032Z,29.13
2017-11-24T05:02:55.363Z,36.40
2017-11-24T05:05:23.153Z,31.10
2017-11-24T05:07:50.483Z,29.63
2017-11-24T05:10:16.781Z,33.27
2017-11-24T05:12:43.117Z,32.13
2017-11-24T05:15:09.380Z,32.37
2017-11-24T05:17:35.652Z,26.80
2017-11-24T05:20:01.968Z,27.23
2017-11-24T05:22:29.007Z,33.03
2017-11-24T05:24:56.057Z,29.57
2017-11-24T05:27:23.141Z,33.73
2017-11-24T05:29:49.408Z,33.17
2017-11-24T05:32:15.711Z,35.10
2017-11-24T05:34:42.022Z,37.70
2017-11-24T05:37:08.301Z,32.23
2017-11-24T05:39:34.672Z,30.47
2017-11-24T05:42:00.990Z,36.70
2017-11-24T05:44:27.333Z,37.60
2017-11-24T05:46:53.591Z,32.03
2017-11-24T05:49:19.978Z,41.70
2017-11-24T05:51:47.035Z,36.40
2017-11-24T05:54:13.323Z,35.57
2017-11-24T05:56:39.608Z,29.70
2017-11-24T05:59:05.954Z,30.43
2017-11-24T06:01:32.255Z,39.40
2017-11-24T06:03:58.583Z,29.30
2017-11-24T06:06:25.586Z,31.40
2017-11-24T06:08:51.881Z,36.03
2017-11-24T06:11:18.210Z,34.73
2017-11-24T06:13:44.575Z,27.23
2017-11-24T06:16:10.880Z,31.07
2017-11-24T06:18:37.219Z,31.17
2017-11-24T06:21:03.517Z,32.70
2017-11-24T06:23:30.579Z,30.70
2017-11-24T06:25:56.957Z,35.10
2017-11-24T06:28:23.237Z,37.30
2017-11-24T06:30:49.518Z,30.77
2017-11-24T06:33:15.817Z,31.17
2017-11-24T06:35:42.122Z,35.97
2017-11-24T06:38:08.441Z,29.43
2017-11-24T06:40:35.485Z,33.13
2017-11-24T06:43:02.537Z,36.27
2017-11-24T06:45:29.533Z,36.30
2017-11-24T06:47:55.874Z,34.67
2017-11-24T06:50:22.241Z,33.37
2017-11-24T06:52:49.324Z,35.23
2017-11-24T06:55:15.672Z,31.33
2017-11-24T06:57:42.064Z,31.93
2017-11-24T07:00:09.129Z,34.10
2017-11-24T07:02:35.450Z,32.70
2017-11-24T07:05:02.512Z,33.13
2017-11-24T07:07:28.829Z,33.13
2017-11-24T07:09:55.892Z,33.80
2017-11-24T07:12:22.174Z,34.87
2017-11-24T07:14:48.428Z,31.30
2017-11-24T07:17:15.466Z,28.80
2017-11-24T07:19:41.721Z,31.33
2017-11-24T07:22:08.060Z,28.40
2017-11-24T07:24:34.390Z,33.77
2017-11-24T07:27:00.725Z,32.07
2017-11-24T07:29:27.083Z,39.17
2017-11-24T07:31:53.618Z,33.60
2017-11-24T07:34:19.989Z,28.40
2017-11-24T07:36:48.394Z,32.43
2017-11-24T07:39:14.705Z,34.10
2017-11-24T07:41:41.738Z,36.17
2017-11-24T07:44:08.032Z,31.43
2017-11-24T07:46:34.291Z,30.03
2017-11-24T07:49:00.610Z,26.73
2017-11-24T07:51:26.970Z,30.37
2017-11-24T07:53:53.293Z,32.63
2017-11-24T07:56:19.693Z,27.60
2017-11-24T07:58:45.973Z,33.27
2017-11-24T08:01:12.282Z,28.03
2017-11-24T08:03:38.609Z,29.40
2017-11-24T08:06:04.870Z,29.37
2017-11-24T08:08:31.242Z,27.30
2017-11-24T08:10:57.647Z,28.50
2017-11-24T08:13:23.979Z,31.73
2017-11-24T08:15:50.302Z,30.33
2017-11-24T08:18:16.639Z,23.30
2017-11-24T08:20:42.993Z,27.03
2017-11-24T08:23:09.331Z,30.97
2017-11-24T08:25:35.704Z,29.90
2017-11-24T08:28:02.025Z,26.90
2017-11-24T08:30:28.355Z,31.83
2017-11-24T08:32:54.648Z,20.80
2017-11-24T08:35:20.952Z,24.93
2017-11-24T08:37:48.063Z,24.00
2017-11-24T08:40:14.458Z,26.70
2017-11-24T08:42:40.829Z,23.37
2017-11-24T08:45:07.302Z,23.77
2017-11-24T08:47:40.879Z,23.87
2017-11-24T08:50:07.233Z,23.93
2017-11-24T08:52:33.571Z,26.53
2017-11-24T08:54:59.896Z,23.70
2017-11-24T08:57:26.185Z,29.80
2017-11-24T08:59:52.555Z,20.73
2017-11-24T09:02:19.653Z,23.13
2017-11-24T09:04:46.002Z,23.60
2017-11-24T09:07:12.330Z,27.17
2017-11-24T09:09:38.712Z,21.60
2017-11-24T09:12:05.032Z,26.97
2017-11-24T09:14:32.188Z,26.00
2017-11-24T09:16:58.501Z,23.93
2017-11-24T09:19:25.523Z,25.83
2017-11-24T09:21:51.960Z,20.13
2017-11-24T09:24:18.327Z,23.90
2017-11-24T09:26:44.684Z,23.80
2017-11-24T09:29:11.012Z,23.37
2017-11-24T09:31:37.349Z,21.03
2017-11-24T09:34:03.673Z,21.47
2017-11-24T09:36:30.009Z,17.80
2017-11-24T09:38:56.433Z,19.50
2017-11-24T09:41:22.806Z,19.50
2017-11-24T09:43:49.101Z,25.90
2017-11-24T09:46:15.412Z,15.73
2017-11-24T09:48:41.769Z,17.17
2017-11-24T09:51:08.123Z,9.00
2017-11-24T09:53:34.435Z,6.77
2017-11-24T09:56:00.802Z,4.67
2017-11-24T09:58:27.140Z,6.80
2017-11-24T10:00:53.470Z,5.43
2017-11-24T10:03:20.066Z,6.97
2017-11-24T10:05:46.395Z,5.37
2017-11-24T10:08:17.694Z,5.97
2017-11-24T10:10:44.117Z,11.27
2017-11-24T10:13:10.403Z,3.93
2017-11-24T10:15:36.715Z,5.67
2017-11-24T10:18:03.185Z,4.10
2017-11-24T10:20:29.542Z,9.53
2017-11-24T10:22:55.898Z,6.50
2017-11-24T10:25:22.294Z,5.53
2017-11-24T10:27:49.040Z,3.13
2017-11-24T10:30:15.376Z,8.50
2017-11-24T10:32:41.665Z,3.33
2017-11-24T10:35:08.003Z,5.33
2017-11-24T10:37:34.923Z,8.37
2017-11-24T10:40:01.340Z,9.03
2017-11-24T10:42:28.402Z,9.30
2017-11-24T10:44:54.674Z,5.27
2017-11-24T10:47:20.957Z,8.80
2017-11-24T10:49:47.979Z,7.90
2017-11-24T10:52:14.283Z,5.80
2017-11-24T10:54:40.604Z,5.13
2017-11-24T10:57:06.904Z,5.33
2017-11-24T10:59:33.989Z,4.87
2017-11-24T11:02:01.237Z,5.57
2017-11-24T11:04:28.452Z,5.97
2017-11-24T11:06:55.575Z,4.37
2017-11-24T11:09:21.895Z,5.57
2017-11-24T11:11:48.200Z,6.70
2017-11-24T11:14:14.608Z,4.77
2017-11-24T11:16:41.189Z,7.40
2017-11-24T11:19:08.396Z,3.63
2017-11-24T11:21:34.667Z,4.97
2017-11-24T11:24:01.002Z,5.17
2017-11-24T11:26:27.293Z,5.60
2017-11-24T11:28:53.541Z,6.60
2017-11-24T11:31:19.858Z,3.57
2017-11-24T11:33:46.196Z,9.30
2017-11-24T11:36:12.517Z,4.10
2017-11-24T11:38:38.938Z,5.60
2017-11-24T11:41:06.003Z,12.50
2017-11-24T11:43:32.421Z,6.13
2017-11-24T11:45:58.868Z,2.57
2017-11-24T11:48:25.211Z,6.77
2017-11-24T11:50:51.681Z,3.40
2017-11-24T11:53:17.956Z,6.90
2017-11-24T11:55:44.263Z,7.80
2017-11-24T11:58:11.365Z,8.50
2017-11-24T12:00:37.736Z,5.73
2017-11-24T12:03:04.048Z,9.60
2017-11-24T12:05:30.386Z,6.70
2017-11-24T12:07:56.859Z,9.50
2017-11-24T12:10:23.384Z,4.97
2017-11-24T12:12:49.869Z,5.03
2017-11-24T12:15:16.961Z,2.93
2017-11-24T12:17:44.022Z,4.40
2017-11-24T12:20:10.608Z,3.97
2017-11-24T12:22:36.924Z,4.13
2017-11-24T12:25:03.247Z,8.60
2017-11-24T12:27:29.576Z,3.70
2017-11-24T12:29:55.911Z,6.03
2017-11-24T12:32:22.244Z,5.73
2017-11-24T12:34:48.584Z,28.83
2017-11-24T12:37:14.874Z,9.23
2017-11-24T12:39:42.009Z,4.37
2017-11-24T12:42:08.375Z,10.90
2017-11-24T12:44:34.677Z,4.43
2017-11-24T12:47:01.696Z,6.93
2017-11-24T12:49:28.053Z,6.77
2017-11-24T12:51:55.105Z,4.43
2017-11-24T12:54:22.229Z,8.80
2017-11-24T12:56:48.583Z,2.90
2017-11-24T12:59:15.624Z,6.80
2017-11-24T13:01:42.734Z,5.30
2017-11-24T13:04:09.043Z,7.33
2017-11-24T13:06:35.373Z,6.67
2017-11-24T13:09:01.701Z,7.83
2017-11-24T13:11:28.031Z,8.03
2017-11-24T13:13:54.467Z,5.43
2017-11-24T13:16:20.799Z,4.57
2017-11-24T13:18:47.235Z,4.47
2017-11-24T13:21:13.513Z,8.63
2017-11-24T13:23:39.826Z,5.73
2017-11-24T13:26:06.124Z,3.83
2017-11-24T13:28:32.398Z,10.83
2017-11-24T13:30:58.812Z,4.67
2017-11-24T13:33:25.129Z,5.37
2017-11-24T13:35:51.452Z,3.63
2017-11-24T13:38:17.755Z,5.83
2017-11-24T13:40:44.794Z,3.87
2017-11-24T13:43:11.075Z,6.50
2017-11-24T13:45:37.415Z,9.73
2017-11-24T13:48:03.722Z,11.33
2017-11-24T13:50:30.058Z,5.37
2017-11-24T13:52:56.458Z,7.10
2017-11-24T13:55:22.809Z,7.23
2017-11-24T13:57:49.184Z,15.33
2017-11-24T14:00:15.535Z,5.10
2017-11-24T14:02:41.864Z,6.43
2017-11-24T14:05:08.242Z,8.67
2017-11-24T14:07:34.585Z,3.80
2017-11-24T14:10:01.108Z,7.60
2017-11-24T14:12:27.439Z,9.40
2017-11-24T14:14:53.785Z,5.37
2017-11-24T14:17:20.120Z,4.87
2017-11-24T14:19:46.443Z,5.97
2017-11-24T14:22:12.767Z,7.23
2017-11-24T14:24:39.084Z,7.07
2017-11-24T14:27:06.197Z,4.57
2017-11-24T14:29:32.534Z,5.63
2017-11-24T14:31:59.275Z,7.20
2017-11-24T14:34:25.745Z,14.50
2017-11-24T14:36:52.821Z,11.70
2017-11-24T14:39:19.151Z,8.77
2017-11-24T14:41:45.508Z,10.80
2017-11-24T14:44:12.429Z,8.53
2017-11-24T14:46:39.070Z,8.93
2017-11-24T14:49:05.511Z,2.97
2017-11-24T14:51:32.587Z,5.50
2017-11-24T14:53:59.223Z,6.20
2017-11-24T14:56:27.779Z,8.23
2017-11-24T14:58:54.299Z,12.03
2017-11-24T15:01:20.750Z,20.63
2017-11-24T15:03:47.171Z,35.63
2017-11-24T15:06:13.588Z,33.77
2017-11-24T15:08:40.214Z,18.53
2017-11-24T15:11:06.807Z,11.33
2017-11-24T15:13:33.151Z,6.40
2017-11-24T15:15:59.609Z,8.73
2017-11-24T15:18:26.992Z,10.30
2017-11-24T15:20:53.452Z,21.33
2017-11-24T15:23:19.880Z,5.73
2017-11-24T15:25:46.169Z,8.63
2017-11-24T15:28:13.399Z,9.10
2017-11-24T15:30:39.974Z,13.50
2017-11-24T15:33:06.391Z,9.33
2017-11-24T15:35:32.813Z,18.17
2017-11-24T15:38:00.083Z,22.17
2017-11-24T15:40:27.165Z,20.07
2017-11-24T15:42:53.576Z,12.20
2017-11-24T15:45:20.095Z,15.17
2017-11-24T15:47:46.460Z,9.60
2017-11-24T15:50:12.773Z,17.50
2017-11-24T15:52:39.192Z,11.87
2017-11-24T15:55:06.306Z,8.03
2017-11-24T15:57:34.178Z,10.10
2017-11-24T16:00:00.651Z,11.93
2017-11-24T16:02:27.043Z,10.53
2017-11-24T16:04:53.601Z,6.13
2017-11-24T16:07:20.708Z,11.23
2017-11-24T16:09:48.188Z,8.20
2017-11-24T16:12:14.556Z,10.93
2017-11-24T16:14:40.900Z,5.10
2017-11-24T16:17:07.886Z,6.97
2017-11-24T16:19:34.188Z,8.50
2017-11-24T16:22:00.727Z,10.50
2017-11-24T16:24:27.056Z,9.73
2017-11-24T16:26:53.435Z,7.53
2017-11-24T16:29:20.557Z,8.27
2017-11-24T16:31:46.853Z,8.30
2017-11-24T16:34:14.066Z,6.90
2017-11-24T16:36:41.131Z,9.63
2017-11-24T16:39:08.185Z,8.37
2017-11-24T16:41:35.400Z,7.67
2017-11-24T16:44:01.844Z,7.37
2017-11-24T16:46:28.318Z,8.10
2017-11-24T16:48:56.753Z,10.30
2017-11-24T16:51:23.230Z,10.83
2017-11-24T16:53:49.587Z,15.30
2017-11-24T16:56:15.884Z,8.10
2017-11-24T16:58:42.961Z,7.27
2017-11-24T17:01:09.330Z,10.83
2017-11-24T17:03:35.712Z,14.07
2017-11-24T17:06:02.094Z,9.03
2017-11-24T17:08:28.466Z,6.83
2017-11-24T17:10:55.550Z,7.53
2017-11-24T17:13:21.996Z,7.23
2017-11-24T17:15:48.332Z,6.87
2017-11-24T17:18:16.532Z,9.27
2017-11-24T17:20:43.598Z,9.00
2017-11-24T17:23:10.050Z,7.30
2017-11-24T17:25:36.395Z,7.90
2017-11-24T17:28:02.696Z,7.13
2017-11-24T17:30:30.045Z,7.10
2017-11-24T17:32:56.476Z,6.90
2017-11-24T17:35:23.620Z,7.30
2017-11-24T17:37:50.810Z,8.23
2017-11-24T17:40:17.151Z,10.83
2017-11-24T17:42:43.473Z,9.77
2017-11-24T17:45:09.880Z,8.10
2017-11-24T17:47:36.949Z,13.40
2017-11-24T17:50:03.320Z,12.13
2017-11-24T17:52:29.698Z,10.33
2017-11-24T17:54:56.744Z,11.47
2017-11-24T17:57:23.800Z,6.60
2017-11-24T17:59:50.225Z,4.20
2017-11-24T18:02:17.342Z,6.00
2017-11-24T18:04:43.652Z,3.03
2017-11-24T18:07:10.008Z,2.53
2017-11-24T18:09:36.419Z,3.37
2017-11-24T18:12:02.794Z,3.40
2017-11-24T18:14:29.165Z,4.50
2017-11-24T18:16:55.532Z,3.87
2017-11-24T18:19:21.814Z,9.50
2017-11-24T18:21:48.202Z,3.60
2017-11-24T18:24:14.556Z,3.30
2017-11-24T18:26:41.640Z,4.83
2017-11-24T18:29:07.953Z,3.20
2017-11-24T18:31:34.322Z,5.07
2017-11-24T18:34:00.627Z,3.97
2017-11-24T18:36:27.041Z,3.50
2017-11-24T18:38:53.544Z,4.73
2017-11-24T18:41:20.668Z,3.10
2017-11-24T18:43:46.988Z,6.13
2017-11-24T18:46:14.289Z,2.73
2017-11-24T18:48:41.542Z,4.17
2017-11-24T18:51:08.953Z,5.90
2017-11-24T18:53:35.533Z,5.30
2017-11-24T18:56:02.704Z,3.23
2017-11-24T18:58:29.884Z,3.67
2017-11-24T19:00:56.383Z,2.90
2017-11-24T19:03:24.059Z,4.07
2017-11-24T19:05:51.251Z,3.60
2017-11-24T19:08:17.617Z,4.07
2017-11-24T19:10:44.976Z,3.20
2017-11-24T19:13:12.093Z,3.50
2017-11-24T19:15:38.579Z,3.20
2017-11-24T19:18:05.026Z,4.70
2017-11-24T19:20:31.457Z,4.17
2017-11-24T19:22:57.864Z,4.70
2017-11-24T19:25:25.003Z,4.00
2017-11-24T19:27:51.426Z,4.63
2017-11-24T19:30:17.903Z,5.50
2017-11-24T19:32:44.527Z,5.13
2017-11-24T19:35:11.584Z,4.80
2017-11-24T19:37:38.966Z,6.10
2017-11-24T19:40:05.507Z,5.93
2017-11-24T19:42:31.892Z,6.43
2017-11-24T19:44:58.312Z,6.93
2017-11-24T19:47:24.595Z,4.63
2017-11-24T19:49:50.970Z,8.77
2017-11-24T19:52:17.382Z,9.10
2017-11-24T19:54:43.759Z,4.13
2017-11-24T19:57:10.056Z,3.30
2017-11-24T19:59:37.639Z,3.73
2017-11-24T20:02:04.848Z,4.00
2017-11-24T20:04:31.436Z,8.13
2017-11-24T20:06:57.782Z,4.20
2017-11-24T20:09:24.965Z,4.20
2017-11-24T20:11:51.385Z,3.67
2017-11-24T20:14:17.767Z,5.37
2017-11-24T20:16:44.076Z,17.73
2017-11-24T20:19:10.628Z,6.83
2017-11-24T20:21:36.922Z,5.13
2017-11-24T20:24:03.254Z,8.03
2017-11-24T20:26:29.618Z,7.30
2017-11-24T20:28:56.021Z,7.60
2017-11-24T20:31:22.504Z,4.37
2017-11-24T20:33:48.830Z,5.50
2017-11-24T20:36:16.128Z,3.97
2017-11-24T20:38:42.540Z,4.00
2017-11-24T20:41:09.597Z,2.90
2017-11-24T20:43:36.741Z,3.53
2017-11-24T20:46:04.391Z,3.27
2017-11-24T20:48:31.500Z,5.00
2017-11-24T20:50:57.852Z,3.83
2017-11-24T20:53:24.247Z,1.93
2017-11-24T20:55:50.602Z,2.73
2017-11-24T20:58:17.095Z,4.40
2017-11-24T21:00:43.596Z,2.70
2017-11-24T21:03:09.924Z,3.40
2017-11-24T21:05:36.318Z,5.43
2017-11-24T21:08:02.671Z,4.57
2017-11-24T21:10:29.144Z,4.07
2017-11-24T21:13:03.263Z,5.80
2017-11-24T21:15:30.429Z,3.17
2017-11-24T21:17:56.874Z,6.97
2017-11-24T21:20:23.282Z,5.30
2017-11-24T21:22:50.448Z,4.97
2017-11-24T21:25:16.975Z,3.37
2017-11-24T21:27:43.646Z,5.23
2017-11-24T21:30:10.379Z,3.70
2017-11-24T21:32:36.710Z,6.93
2017-11-24T21:35:03.104Z,5.43
2017-11-24T21:37:30.208Z,8.63
2017-11-24T21:39:56.985Z,11.30
2017-11-24T21:42:23.655Z,9.77
2017-11-24T21:44:50.906Z,6.67
2017-11-24T21:47:17.756Z,9.40
2017-11-24T21:49:44.279Z,9.30
2017-11-24T21:52:10.617Z,7.97
2017-11-24T21:54:37.041Z,9.10
2017-11-24T21:57:04.187Z,8.73
2017-11-24T21:59:32.167Z,7.60
2017-11-24T22:01:58.850Z,7.00
2017-11-24T22:04:25.663Z,5.30
2017-11-24T22:06:52.026Z,7.00
2017-11-24T22:09:18.416Z,6.00
2017-11-24T22:11:44.809Z,11.43
2017-11-24T22:14:11.304Z,6.93
2017-11-24T22:16:37.663Z,5.90
2017-11-24T22:19:04.054Z,4.30
2017-11-24T22:21:30.756Z,8.97
2017-11-24T22:23:57.126Z,8.33
2017-11-24T22:26:23.452Z,9.40
2017-11-24T22:28:49.829Z,8.27
2017-11-24T22:31:16.251Z,7.73
2017-11-24T22:33:42.612Z,9.87
2017-11-24T22:36:09.093Z,11.10
2017-11-24T22:38:35.487Z,10.50
2017-11-24T22:41:01.913Z,12.37
2017-11-24T22:43:28.409Z,11.10
2017-11-24T22:45:54.751Z,11.13
2017-11-24T22:48:21.072Z,13.27
2017-11-24T22:50:47.427Z,14.07
2017-11-24T22:53:13.809Z,11.17
2017-11-24T22:55:40.176Z,12.40
2017-11-24T22:58:06.510Z,11.70
2017-11-24T23:00:32.875Z,10.23
2017-11-24T23:02:59.715Z,11.17
2017-11-24T23:05:26.015Z,12.03
2017-11-24T23:07:52.353Z,12.50
2017-11-24T23:10:18.666Z,15.13
2017-11-24T23:12:45.000Z,19.30
2017-11-24T23:15:11.396Z,16.30
2017-11-24T23:17:38.457Z,12.90
2017-11-24T23:20:05.073Z,20.43
2017-11-24T23:22:31.430Z,14.20
2017-11-24T23:24:57.760Z,12.87
2017-11-24T23:27:24.233Z,8.97
2017-11-24T23:29:50.645Z,10.70
2017-11-24T23:32:16.917Z,16.80
2017-11-24T23:34:43.208Z,12.80
2017-11-24T23:37:09.984Z,7.40
2017-11-24T23:39:36.281Z,9.27
2017-11-24T23:42:03.037Z,6.20
2017-11-24T23:44:29.463Z,9.10
2017-11-24T23:46:55.783Z,13.80
2017-11-24T23:49:22.158Z,12.60
2017-11-24T23:51:48.548Z,12.70
2017-11-24T23:54:14.883Z,26.03
2017-11-24T23:56:41.412Z,16.97
2017-11-24T23:59:07.734Z,13.33
